Wilmore, Pennsylvania
Current Conditions -  °F | °C
As of 9:54 AM on Friday 28 Nov 2014 (Local Time) from KJST Reporting Station
Light Snow Light Snow  
Wind Chill:   Ceiling: 1200
Heat Index: 20°   Visibility: 1mi
Dew Point: 15°   Wind: 13mph
Humidity: 81%   Direction: 290°WNW
Pressure: 30.19"   Gusts: NA
Location:  40.39°N, 78.72°W
Report Text: KJST 281454Z AUTO 29011KT 1SM -SN BKN012 OVC019 M07/M09 A3019 RMK AO2 SLP259 P0000 60000 T10671094 53005
Loading
Personal Weather Stations






























Interactive Weather Map New forecast layout! Learn more

10-Day Weather Forecast

Advertisements
Track Severe Weather on mobile